sensor_id;sensor_type;location;lat;lon;timestamp;P1;durP1;ratioP1;P2;durP2;ratioP2
51692;SDS011;37777;53.066;21.638;2022-09-09T00:10:58;3.03;;;1.67;;
51692;SDS011;37777;53.066;21.638;2022-09-09T00:18:11;2.70;;;1.60;;
51692;SDS011;37777;53.066;21.638;2022-09-09T00:25:28;2.10;;;1.63;;
51692;SDS011;37777;53.066;21.638;2022-09-09T00:32:35;5.68;;;1.90;;
51692;SDS011;37777;53.066;21.638;2022-09-09T00:39:39;2.03;;;1.50;;
51692;SDS011;37777;53.066;21.638;2022-09-09T00:46:53;2.60;;;1.80;;
51692;SDS011;37777;53.066;21.638;2022-09-09T00:54:06;1.48;;;1.38;;
51692;SDS011;37777;53.066;21.638;2022-09-09T01:01:11;1.50;;;1.40;;
51692;SDS011;37777;53.066;21.638;2022-09-09T01:15:38;1.80;;;1.70;;
51692;SDS011;37777;53.066;21.638;2022-09-09T01:29:58;4.78;;;1.60;;
51692;SDS011;37777;53.066;21.638;2022-09-09T01:37:07;2.20;;;1.85;;
51692;SDS011;37777;53.066;21.638;2022-09-09T01:44:11;1.70;;;1.60;;
51692;SDS011;37777;53.066;21.638;2022-09-09T01:51:13;1.70;;;1.60;;
51692;SDS011;37777;53.066;21.638;2022-09-09T01:58:22;3.28;;;1.50;;
51692;SDS011;37777;53.066;21.638;2022-09-09T02:12:42;2.40;;;1.80;;
51692;SDS011;37777;53.066;21.638;2022-09-09T02:19:47;1.98;;;1.77;;
51692;SDS011;37777;53.066;21.638;2022-09-09T02:26:52;1.70;;;1.60;;
51692;SDS011;37777;53.066;21.638;2022-09-09T02:33:57;1.65;;;1.55;;
51692;SDS011;37777;53.066;21.638;2022-09-09T02:41:02;1.98;;;1.70;;
51692;SDS011;37777;53.066;21.638;2022-09-09T02:48:17;2.78;;;1.90;;
51692;SDS011;37777;53.066;21.638;2022-09-09T03:03:07;3.42;;;1.95;;
51692;SDS011;37777;53.066;21.638;2022-09-09T03:10:12;5.53;;;1.80;;
51692;SDS011;37777;53.066;21.638;2022-09-09T03:17:14;2.38;;;1.80;;
51692;SDS011;37777;53.066;21.638;2022-09-09T03:24:17;3.00;;;2.25;;
51692;SDS011;37777;53.066;21.638;2022-09-09T03:31:19;2.38;;;1.98;;
51692;SDS011;37777;53.066;21.638;2022-09-09T03:38:21;2.47;;;1.92;;
51692;SDS011;37777;53.066;21.638;2022-09-09T03:45:23;2.58;;;2.00;;
51692;SDS011;37777;53.066;21.638;2022-09-09T03:52:25;2.45;;;2.10;;
51692;SDS011;37777;53.066;21.638;2022-09-09T03:59:27;2.33;;;2.13;;
51692;SDS011;37777;53.066;21.638;2022-09-09T04:06:29;4.32;;;2.50;;
51692;SDS011;37777;53.066;21.638;2022-09-09T04:13:32;4.03;;;2.60;;
51692;SDS011;37777;53.066;21.638;2022-09-09T04:20:35;6.88;;;3.22;;
51692;SDS011;37777;53.066;21.638;2022-09-09T04:27:37;10.25;;;4.05;;
51692;SDS011;37777;53.066;21.638;2022-09-09T04:34:39;6.93;;;4.40;;
51692;SDS011;37777;53.066;21.638;2022-09-09T04:41:42;10.25;;;4.38;;
51692;SDS011;37777;53.066;21.638;2022-09-09T04:48:44;5.25;;;3.80;;
51692;SDS011;37777;53.066;21.638;2022-09-09T04:55:46;6.10;;;3.72;;
51692;SDS011;37777;53.066;21.638;2022-09-09T05:02:49;6.07;;;3.72;;
51692;SDS011;37777;53.066;21.638;2022-09-09T05:09:51;7.50;;;4.30;;
51692;SDS011;37777;53.066;21.638;2022-09-09T05:16:52;6.80;;;4.35;;
51692;SDS011;37777;53.066;21.638;2022-09-09T05:23:55;8.80;;;4.90;;
51692;SDS011;37777;53.066;21.638;2022-09-09T05:38:05;13.85;;;5.60;;
51692;SDS011;37777;53.066;21.638;2022-09-09T05:45:08;8.98;;;5.15;;
51692;SDS011;37777;53.066;21.638;2022-09-09T05:52:10;15.90;;;6.55;;
51692;SDS011;37777;53.066;21.638;2022-09-09T05:59:12;13.68;;;6.30;;
51692;SDS011;37777;53.066;21.638;2022-09-09T06:06:17;8.95;;;6.38;;
51692;SDS011;37777;53.066;21.638;2022-09-09T06:13:23;18.20;;;9.63;;
51692;SDS011;37777;53.066;21.638;2022-09-09T06:20:25;21.48;;;12.68;;
51692;SDS011;37777;53.066;21.638;2022-09-09T06:27:27;10.45;;;6.88;;
51692;SDS011;37777;53.066;21.638;2022-09-09T06:34:30;11.35;;;7.25;;
51692;SDS011;37777;53.066;21.638;2022-09-09T06:41:32;12.63;;;5.60;;
51692;SDS011;37777;53.066;21.638;2022-09-09T06:48:34;10.68;;;5.45;;
51692;SDS011;37777;53.066;21.638;2022-09-09T06:55:38;7.85;;;5.30;;
51692;SDS011;37777;53.066;21.638;2022-09-09T07:02:41;10.65;;;5.15;;
51692;SDS011;37777;53.066;21.638;2022-09-09T07:09:44;7.28;;;4.72;;
51692;SDS011;37777;53.066;21.638;2022-09-09T07:16:51;18.50;;;7.07;;
51692;SDS011;37777;53.066;21.638;2022-09-09T07:23:59;8.05;;;5.75;;
51692;SDS011;37777;53.066;21.638;2022-09-09T07:31:02;13.10;;;6.63;;
51692;SDS011;37777;53.066;21.638;2022-09-09T07:38:05;11.35;;;6.20;;
51692;SDS011;37777;53.066;21.638;2022-09-09T07:45:07;9.23;;;5.85;;
51692;SDS011;37777;53.066;21.638;2022-09-09T07:52:10;8.80;;;5.78;;
51692;SDS011;37777;53.066;21.638;2022-09-09T07:59:17;9.63;;;5.78;;
51692;SDS011;37777;53.066;21.638;2022-09-09T08:06:20;7.15;;;5.57;;
51692;SDS011;37777;53.066;21.638;2022-09-09T08:13:28;10.57;;;5.67;;
51692;SDS011;37777;53.066;21.638;2022-09-09T08:20:31;12.93;;;7.20;;
51692;SDS011;37777;53.066;21.638;2022-09-09T08:27:33;10.95;;;6.70;;
51692;SDS011;37777;53.066;21.638;2022-09-09T08:34:35;9.73;;;6.93;;
51692;SDS011;37777;53.066;21.638;2022-09-09T08:56:24;12.10;;;6.47;;
51692;SDS011;37777;53.066;21.638;2022-09-09T09:10:53;8.23;;;6.15;;
51692;SDS011;37777;53.066;21.638;2022-09-09T09:17:58;6.60;;;5.53;;
51692;SDS011;37777;53.066;21.638;2022-09-09T09:32:21;8.32;;;6.10;;
51692;SDS011;37777;53.066;21.638;2022-09-09T09:46:50;7.80;;;5.57;;
51692;SDS011;37777;53.066;21.638;2022-09-09T09:53:52;8.68;;;5.45;;
51692;SDS011;37777;53.066;21.638;2022-09-09T10:00:59;7.65;;;5.10;;
51692;SDS011;37777;53.066;21.638;2022-09-09T10:08:20;7.90;;;5.18;;
51692;SDS011;37777;53.066;21.638;2022-09-09T10:15:44;5.95;;;4.43;;
51692;SDS011;37777;53.066;21.638;2022-09-09T10:22:50;5.95;;;5.10;;
51692;SDS011;37777;53.066;21.638;2022-09-09T10:29:57;5.80;;;4.80;;
51692;SDS011;37777;53.066;21.638;2022-09-09T10:37:26;6.75;;;5.13;;
51692;SDS011;37777;53.066;21.638;2022-09-09T10:52:52;6.22;;;5.50;;
51692;SDS011;37777;53.066;21.638;2022-09-09T10:59:38;5.65;;;4.68;;
51692;SDS011;37777;53.066;21.638;2022-09-09T11:06:47;8.87;;;5.50;;
51692;SDS011;37777;53.066;21.638;2022-09-09T11:21:10;8.15;;;4.35;;
51692;SDS011;37777;53.066;21.638;2022-09-09T11:28:32;6.03;;;4.20;;
51692;SDS011;37777;53.066;21.638;2022-09-09T11:43:33;6.05;;;4.65;;
51692;SDS011;37777;53.066;21.638;2022-09-09T11:50:40;7.25;;;4.72;;
51692;SDS011;37777;53.066;21.638;2022-09-09T11:57:42;6.47;;;5.05;;
51692;SDS011;37777;53.066;21.638;2022-09-09T12:04:54;8.57;;;5.55;;
51692;SDS011;37777;53.066;21.638;2022-09-09T12:19:21;8.75;;;5.60;;
51692;SDS011;37777;53.066;21.638;2022-09-09T12:33:48;13.48;;;5.68;;
51692;SDS011;37777;53.066;21.638;2022-09-09T12:40:54;9.40;;;6.32;;
51692;SDS011;37777;53.066;21.638;2022-09-09T12:47:59;7.35;;;5.45;;
51692;SDS011;37777;53.066;21.638;2022-09-09T12:55:03;7.10;;;5.43;;
51692;SDS011;37777;53.066;21.638;2022-09-09T13:02:22;7.03;;;5.28;;
51692;SDS011;37777;53.066;21.638;2022-09-09T13:09:26;6.30;;;5.32;;
51692;SDS011;37777;53.066;21.638;2022-09-09T13:16:29;8.75;;;5.68;;
51692;SDS011;37777;53.066;21.638;2022-09-09T13:23:37;7.82;;;5.80;;
51692;SDS011;37777;53.066;21.638;2022-09-09T13:30:39;7.85;;;6.07;;
51692;SDS011;37777;53.066;21.638;2022-09-09T13:37:42;8.45;;;5.60;;
51692;SDS011;37777;53.066;21.638;2022-09-09T13:44:45;10.55;;;6.03;;
51692;SDS011;37777;53.066;21.638;2022-09-09T13:51:49;8.15;;;5.60;;
51692;SDS011;37777;53.066;21.638;2022-09-09T13:58:52;8.50;;;6.07;;
51692;SDS011;37777;53.066;21.638;2022-09-09T14:05:54;8.57;;;6.15;;
51692;SDS011;37777;53.066;21.638;2022-09-09T14:12:56;9.77;;;6.03;;
51692;SDS011;37777;53.066;21.638;2022-09-09T14:19:58;12.18;;;6.40;;
51692;SDS011;37777;53.066;21.638;2022-09-09T14:27:00;7.72;;;5.57;;
51692;SDS011;37777;53.066;21.638;2022-09-09T14:34:02;7.97;;;5.30;;
51692;SDS011;37777;53.066;21.638;2022-09-09T14:41:05;14.43;;;6.05;;
51692;SDS011;37777;53.066;21.638;2022-09-09T14:48:07;8.50;;;5.55;;
51692;SDS011;37777;53.066;21.638;2022-09-09T14:55:10;6.60;;;5.18;;
51692;SDS011;37777;53.066;21.638;2022-09-09T15:02:13;5.90;;;4.93;;
51692;SDS011;37777;53.066;21.638;2022-09-09T15:09:15;8.73;;;5.57;;
51692;SDS011;37777;53.066;21.638;2022-09-09T15:16:18;7.93;;;5.35;;
51692;SDS011;37777;53.066;21.638;2022-09-09T15:23:20;9.93;;;5.13;;
51692;SDS011;37777;53.066;21.638;2022-09-09T15:30:24;8.13;;;5.03;;
51692;SDS011;37777;53.066;21.638;2022-09-09T15:37:29;6.55;;;5.00;;
51692;SDS011;37777;53.066;21.638;2022-09-09T15:44:39;9.13;;;5.65;;
51692;SDS011;37777;53.066;21.638;2022-09-09T15:51:47;6.75;;;5.78;;
51692;SDS011;37777;53.066;21.638;2022-09-09T15:58:53;7.93;;;5.82;;
51692;SDS011;37777;53.066;21.638;2022-09-09T16:05:56;9.18;;;5.80;;
51692;SDS011;37777;53.066;21.638;2022-09-09T16:12:59;7.75;;;6.20;;
51692;SDS011;37777;53.066;21.638;2022-09-09T16:20:01;8.05;;;6.20;;
51692;SDS011;37777;53.066;21.638;2022-09-09T16:27:04;8.63;;;5.43;;
51692;SDS011;37777;53.066;21.638;2022-09-09T16:34:09;8.07;;;5.53;;
51692;SDS011;37777;53.066;21.638;2022-09-09T16:41:14;9.88;;;5.40;;
51692;SDS011;37777;53.066;21.638;2022-09-09T16:48:20;8.70;;;5.78;;
51692;SDS011;37777;53.066;21.638;2022-09-09T16:55:27;8.95;;;5.82;;
51692;SDS011;37777;53.066;21.638;2022-09-09T17:02:38;9.52;;;5.68;;
51692;SDS011;37777;53.066;21.638;2022-09-09T17:09:44;6.88;;;5.35;;
51692;SDS011;37777;53.066;21.638;2022-09-09T17:16:46;9.50;;;5.78;;
51692;SDS011;37777;53.066;21.638;2022-09-09T17:23:49;9.70;;;6.10;;
51692;SDS011;37777;53.066;21.638;2022-09-09T17:30:51;8.90;;;6.10;;
51692;SDS011;37777;53.066;21.638;2022-09-09T17:37:54;7.70;;;5.47;;
51692;SDS011;37777;53.066;21.638;2022-09-09T17:44:57;8.70;;;6.18;;
51692;SDS011;37777;53.066;21.638;2022-09-09T17:51:59;7.38;;;5.45;;
51692;SDS011;37777;53.066;21.638;2022-09-09T17:59:02;7.43;;;5.30;;
51692;SDS011;37777;53.066;21.638;2022-09-09T18:06:07;8.63;;;5.65;;
51692;SDS011;37777;53.066;21.638;2022-09-09T18:13:10;12.50;;;5.63;;
51692;SDS011;37777;53.066;21.638;2022-09-09T18:20:12;6.53;;;5.13;;
51692;SDS011;37777;53.066;21.638;2022-09-09T18:27:15;6.78;;;4.90;;
51692;SDS011;37777;53.066;21.638;2022-09-09T18:34:18;6.72;;;5.15;;
51692;SDS011;37777;53.066;21.638;2022-09-09T18:48:27;6.55;;;5.18;;
51692;SDS011;37777;53.066;21.638;2022-09-09T18:55:28;8.82;;;5.20;;
51692;SDS011;37777;53.066;21.638;2022-09-09T19:02:31;6.03;;;4.75;;
51692;SDS011;37777;53.066;21.638;2022-09-09T19:09:37;6.45;;;4.90;;
51692;SDS011;37777;53.066;21.638;2022-09-09T19:16:41;6.32;;;4.85;;
51692;SDS011;37777;53.066;21.638;2022-09-09T19:23:45;6.60;;;4.75;;
51692;SDS011;37777;53.066;21.638;2022-09-09T19:30:48;6.28;;;4.78;;
51692;SDS011;37777;53.066;21.638;2022-09-09T19:37:50;4.88;;;4.38;;
51692;SDS011;37777;53.066;21.638;2022-09-09T19:44:52;6.13;;;4.28;;
51692;SDS011;37777;53.066;21.638;2022-09-09T19:51:56;12.52;;;4.75;;
51692;SDS011;37777;53.066;21.638;2022-09-09T19:58:59;6.65;;;4.20;;
51692;SDS011;37777;53.066;21.638;2022-09-09T20:06:01;5.75;;;4.28;;
51692;SDS011;37777;53.066;21.638;2022-09-09T20:13:03;8.15;;;4.70;;
51692;SDS011;37777;53.066;21.638;2022-09-09T20:20:05;5.82;;;4.50;;
51692;SDS011;37777;53.066;21.638;2022-09-09T20:27:08;5.97;;;4.47;;
51692;SDS011;37777;53.066;21.638;2022-09-09T20:34:11;5.00;;;4.22;;
51692;SDS011;37777;53.066;21.638;2022-09-09T20:41:16;7.45;;;4.90;;
51692;SDS011;37777;53.066;21.638;2022-09-09T20:48:22;8.60;;;4.40;;
51692;SDS011;37777;53.066;21.638;2022-09-09T20:55:25;8.18;;;4.75;;
51692;SDS011;37777;53.066;21.638;2022-09-09T21:02:27;6.40;;;4.60;;
51692;SDS011;37777;53.066;21.638;2022-09-09T21:09:29;9.70;;;4.60;;
51692;SDS011;37777;53.066;21.638;2022-09-09T21:16:31;8.20;;;4.70;;
51692;SDS011;37777;53.066;21.638;2022-09-09T21:23:33;6.80;;;4.40;;
51692;SDS011;37777;53.066;21.638;2022-09-09T21:30:37;12.18;;;5.38;;
51692;SDS011;37777;53.066;21.638;2022-09-09T21:37:44;7.75;;;5.53;;
51692;SDS011;37777;53.066;21.638;2022-09-09T21:44:47;9.23;;;6.03;;
51692;SDS011;37777;53.066;21.638;2022-09-09T21:51:50;9.48;;;6.50;;
51692;SDS011;37777;53.066;21.638;2022-09-09T21:58:53;16.85;;;7.35;;
51692;SDS011;37777;53.066;21.638;2022-09-09T22:05:58;11.38;;;6.90;;
51692;SDS011;37777;53.066;21.638;2022-09-09T22:13:00;12.48;;;7.30;;
51692;SDS011;37777;53.066;21.638;2022-09-09T22:20:02;15.65;;;7.38;;
51692;SDS011;37777;53.066;21.638;2022-09-09T22:27:05;14.30;;;6.97;;
51692;SDS011;37777;53.066;21.638;2022-09-09T22:34:07;13.93;;;7.10;;
51692;SDS011;37777;53.066;21.638;2022-09-09T22:41:09;14.25;;;7.72;;
51692;SDS011;37777;53.066;21.638;2022-09-09T22:48:13;14.70;;;8.25;;
51692;SDS011;37777;53.066;21.638;2022-09-09T22:55:15;18.85;;;8.40;;
51692;SDS011;37777;53.066;21.638;2022-09-09T23:02:17;12.60;;;8.15;;
51692;SDS011;37777;53.066;21.638;2022-09-09T23:09:21;17.15;;;8.75;;
51692;SDS011;37777;53.066;21.638;2022-09-09T23:16:33;18.92;;;9.15;;
51692;SDS011;37777;53.066;21.638;2022-09-09T23:23:39;15.85;;;8.68;;
51692;SDS011;37777;53.066;21.638;2022-09-09T23:30:42;17.02;;;8.45;;
51692;SDS011;37777;53.066;21.638;2022-09-09T23:37:43;17.75;;;9.30;;
51692;SDS011;37777;53.066;21.638;2022-09-09T23:44:45;15.65;;;9.40;;
51692;SDS011;37777;53.066;21.638;2022-09-09T23:51:48;18.90;;;9.40;;
51692;SDS011;37777;53.066;21.638;2022-09-09T23:58:50;21.98;;;8.93;;
